createdAt,value
2023-02-19T00:00:16.126Z,8.01
2023-02-19T00:03:05.142Z,7.99
2023-02-19T00:05:36.117Z,8.01
2023-02-19T00:08:05.970Z,8.06
2023-02-19T00:10:34.656Z,8.09
2023-02-19T00:13:03.645Z,8.11
2023-02-19T00:15:33.563Z,8.11
2023-02-19T00:18:02.122Z,8.13
2023-02-19T00:20:31.124Z,8.16
2023-02-19T00:23:00.267Z,8.17
2023-02-19T00:25:28.915Z,8.22
2023-02-19T00:27:57.892Z,8.24
2023-02-19T00:30:27.169Z,8.28
2023-02-19T00:32:56.596Z,8.36
2023-02-19T00:35:25.493Z,8.38
2023-02-19T00:37:54.630Z,8.41
2023-02-19T00:40:23.150Z,8.47
2023-02-19T00:42:52.183Z,8.51
2023-02-19T00:45:22.432Z,8.50
2023-02-19T00:47:51.048Z,8.39
2023-02-19T00:50:19.889Z,8.26
2023-02-19T00:52:48.901Z,8.16
2023-02-19T00:55:17.970Z,8.05
2023-02-19T00:57:46.588Z,7.94
2023-02-19T01:00:15.421Z,7.90
2023-02-19T01:02:44.347Z,7.88
2023-02-19T01:05:13.375Z,7.87
2023-02-19T01:07:42.222Z,7.85
2023-02-19T01:10:11.265Z,7.87
2023-02-19T01:12:40.102Z,7.88
2023-02-19T01:15:09.301Z,7.88
2023-02-19T01:17:38.374Z,7.88
2023-02-19T01:20:07.587Z,7.91
2023-02-19T01:22:36.456Z,7.88
2023-02-19T01:25:05.655Z,7.84
2023-02-19T01:27:34.281Z,7.83
2023-02-19T01:30:03.614Z,7.82
2023-02-19T01:32:32.435Z,7.84
2023-02-19T01:35:01.368Z,7.91
2023-02-19T01:37:32.565Z,7.99
2023-02-19T01:40:01.190Z,8.06
2023-02-19T01:42:30.274Z,8.12
2023-02-19T01:45:24.034Z,8.15
2023-02-19T01:48:01.934Z,8.18
2023-02-19T01:50:35.919Z,8.22
2023-02-19T01:53:09.143Z,8.28
2023-02-19T01:55:39.574Z,8.34
2023-02-19T01:58:08.961Z,8.38
2023-02-19T02:00:40.071Z,8.37
2023-02-19T02:03:09.072Z,8.34
2023-02-19T02:05:46.566Z,8.33
2023-02-19T02:08:36.086Z,8.32
2023-02-19T02:11:05.702Z,8.29
2023-02-19T02:13:36.980Z,8.26
2023-02-19T02:16:14.504Z,8.23
2023-02-19T02:19:06.910Z,8.23
2023-02-19T02:22:10.186Z,8.28
2023-02-19T02:25:23.909Z,8.34
2023-02-19T02:28:07.475Z,8.27
2023-02-19T02:30:43.955Z,8.23
2023-02-19T02:33:34.742Z,8.24
2023-02-19T02:36:13.309Z,8.25
2023-02-19T02:38:45.652Z,8.25
2023-02-19T02:41:16.285Z,8.28
2023-02-19T02:43:44.969Z,8.32
2023-02-19T02:46:19.686Z,8.33
2023-02-19T02:48:54.357Z,8.26
2023-02-19T02:51:32.493Z,8.20
2023-02-19T02:54:29.329Z,8.17
2023-02-19T02:57:00.528Z,8.05
2023-02-19T02:59:36.130Z,7.96
2023-02-19T03:02:13.275Z,7.93
2023-02-19T03:05:25.591Z,7.90
2023-02-19T03:07:57.343Z,7.97
2023-02-19T03:10:35.598Z,8.00
2023-02-19T03:13:29.902Z,8.04
2023-02-19T03:16:26.829Z,8.12
2023-02-19T03:19:18.204Z,8.17
2023-02-19T03:22:14.691Z,8.25
2023-02-19T03:25:08.474Z,8.32
2023-02-19T03:27:40.656Z,8.38
2023-02-19T03:30:14.197Z,8.46
2023-02-19T03:32:55.024Z,8.50
2023-02-19T03:35:27.769Z,8.52
2023-02-19T03:38:18.906Z,8.51
2023-02-19T03:41:14.088Z,8.51
2023-02-19T03:43:59.206Z,8.51
2023-02-19T03:47:12.763Z,8.51
2023-02-19T03:49:56.634Z,8.52
2023-02-19T03:52:47.500Z,8.59
2023-02-19T03:55:37.612Z,8.62
2023-02-19T03:58:23.869Z,8.66
2023-02-19T04:01:00.702Z,8.69
2023-02-19T04:04:09.482Z,8.68
2023-02-19T04:06:42.436Z,8.63
2023-02-19T04:09:15.375Z,8.60
2023-02-19T04:11:44.753Z,8.58
2023-02-19T04:14:47.484Z,8.54
2023-02-19T04:17:32.616Z,8.46
2023-02-19T04:20:06.059Z,8.45
2023-02-19T04:22:39.327Z,8.47
2023-02-19T04:25:09.285Z,8.47
2023-02-19T04:27:41.418Z,8.47
2023-02-19T04:30:14.617Z,8.47
2023-02-19T04:32:43.970Z,8.49
2023-02-19T04:35:12.504Z,8.53
2023-02-19T04:37:41.182Z,8.55
2023-02-19T04:40:10.624Z,8.55
2023-02-19T04:42:39.191Z,8.51
2023-02-19T04:45:08.570Z,8.50
2023-02-19T04:47:37.817Z,8.52
2023-02-19T04:50:06.551Z,8.54
2023-02-19T04:52:37.803Z,8.53
2023-02-19T04:55:07.500Z,8.52
2023-02-19T04:57:36.413Z,8.54
2023-02-19T05:00:07.000Z,8.53
2023-02-19T05:02:36.305Z,8.52
2023-02-19T05:05:05.084Z,8.51
2023-02-19T05:07:34.286Z,8.53
2023-02-19T05:10:04.744Z,8.55
2023-02-19T05:12:33.379Z,8.58
2023-02-19T05:15:02.224Z,8.63
2023-02-19T05:17:34.070Z,8.68
2023-02-19T05:20:02.861Z,8.70
2023-02-19T05:22:32.217Z,8.68
2023-02-19T05:25:00.885Z,8.65
2023-02-19T05:27:31.450Z,8.61
2023-02-19T05:30:00.449Z,8.60
2023-02-19T05:32:29.061Z,8.59
2023-02-19T05:34:58.074Z,8.57
2023-02-19T05:37:27.860Z,8.55
2023-02-19T05:39:56.529Z,8.52
2023-02-19T05:42:25.781Z,8.49
2023-02-19T05:44:54.859Z,8.45
2023-02-19T05:47:23.442Z,8.46
2023-02-19T05:49:53.577Z,8.50
2023-02-19T05:52:22.583Z,8.49
2023-02-19T05:54:51.219Z,8.48
2023-02-19T05:57:22.102Z,8.46
2023-02-19T05:59:51.062Z,8.39
2023-02-19T06:02:19.613Z,8.34
2023-02-19T06:04:49.161Z,8.33
2023-02-19T06:07:19.133Z,8.36
2023-02-19T06:09:51.618Z,8.39
2023-02-19T06:12:20.492Z,8.41
2023-02-19T06:14:49.901Z,8.44
2023-02-19T06:17:19.062Z,8.47
2023-02-19T06:19:48.107Z,8.47
2023-02-19T06:22:17.298Z,8.46
2023-02-19T06:24:47.677Z,8.42
2023-02-19T06:27:16.870Z,8.41
2023-02-19T06:29:45.641Z,8.42
2023-02-19T06:32:15.005Z,8.42
2023-02-19T06:34:44.177Z,8.43
2023-02-19T06:37:12.872Z,8.40
2023-02-19T06:39:42.090Z,8.38
2023-02-19T06:42:11.146Z,8.43
2023-02-19T06:44:39.885Z,8.47
2023-02-19T06:47:08.906Z,8.38
2023-02-19T06:49:40.444Z,8.18
2023-02-19T06:52:09.346Z,7.92
2023-02-19T06:54:38.536Z,7.70
2023-02-19T06:57:07.596Z,7.54
2023-02-19T06:59:36.305Z,7.45
2023-02-19T07:02:05.255Z,7.41
2023-02-19T07:04:33.988Z,7.39
2023-02-19T07:07:02.723Z,7.38
2023-02-19T07:09:34.815Z,7.39
2023-02-19T07:12:04.055Z,7.34
2023-02-19T07:14:32.917Z,7.37
2023-02-19T07:17:01.490Z,7.45
2023-02-19T07:19:30.810Z,7.43
2023-02-19T07:21:59.519Z,7.36
2023-02-19T07:24:28.125Z,7.29
2023-02-19T07:26:57.380Z,7.22
2023-02-19T07:29:26.060Z,7.23
2023-02-19T07:31:55.891Z,7.21
2023-02-19T07:34:25.233Z,7.14
2023-02-19T07:36:53.900Z,7.09
2023-02-19T07:39:22.527Z,7.03
2023-02-19T07:41:51.375Z,7.08
2023-02-19T07:44:28.587Z,7.14
2023-02-19T07:46:57.417Z,7.14
2023-02-19T07:49:26.150Z,7.07
2023-02-19T07:51:55.331Z,7.06
2023-02-19T07:54:24.300Z,7.01
2023-02-19T07:56:54.796Z,6.89
2023-02-19T07:59:24.214Z,6.83
2023-02-19T08:02:12.152Z,6.84
2023-02-19T08:04:41.002Z,6.80
2023-02-19T08:07:09.721Z,6.71
2023-02-19T08:09:40.844Z,6.55
2023-02-19T08:12:30.815Z,6.29
2023-02-19T08:14:59.868Z,6.10
2023-02-19T08:17:30.559Z,5.92
2023-02-19T08:19:59.387Z,5.78
2023-02-19T08:22:28.423Z,5.75
2023-02-19T08:24:57.575Z,5.68
2023-02-19T08:27:26.282Z,5.60
2023-02-19T08:29:55.050Z,5.54
2023-02-19T08:32:24.046Z,5.48
2023-02-19T08:34:53.123Z,5.37
2023-02-19T08:37:21.817Z,5.26
2023-02-19T08:39:53.274Z,5.25
2023-02-19T08:42:22.006Z,5.23
2023-02-19T08:44:50.838Z,5.20
2023-02-19T08:47:20.160Z,5.20
2023-02-19T08:49:49.086Z,5.22
2023-02-19T08:52:17.748Z,5.17
2023-02-19T08:54:46.850Z,5.16
2023-02-19T08:57:17.557Z,5.12
2023-02-19T08:59:46.681Z,5.06
2023-02-19T09:02:15.498Z,5.05
2023-02-19T09:04:45.194Z,5.02
2023-02-19T09:07:14.219Z,5.05
2023-02-19T09:09:43.014Z,5.04
2023-02-19T09:12:13.139Z,5.04
2023-02-19T09:14:42.300Z,5.04
2023-02-19T09:17:11.270Z,5.01
2023-02-19T09:19:40.003Z,5.07
2023-02-19T09:22:08.867Z,5.11
2023-02-19T09:24:37.924Z,5.15
2023-02-19T09:27:06.925Z,5.13
2023-02-19T09:29:35.665Z,5.06
2023-02-19T09:32:04.445Z,4.99
2023-02-19T09:34:35.546Z,5.00
2023-02-19T09:37:04.521Z,5.07
2023-02-19T09:39:35.117Z,5.10
2023-02-19T09:42:16.138Z,5.17
2023-02-19T09:44:49.340Z,5.24
2023-02-19T09:47:21.289Z,5.22
2023-02-19T09:49:54.914Z,5.14
2023-02-19T09:52:38.861Z,5.20
2023-02-19T09:55:18.588Z,5.22
2023-02-19T09:57:48.672Z,5.34
2023-02-19T10:00:22.818Z,5.44
2023-02-19T10:02:54.170Z,5.42
2023-02-19T10:05:26.320Z,5.41
2023-02-19T10:07:56.321Z,5.46
2023-02-19T10:10:36.500Z,5.49
2023-02-19T10:13:29.469Z,5.45
2023-02-19T10:16:01.523Z,5.36
2023-02-19T10:18:41.548Z,5.44
2023-02-19T10:21:13.473Z,5.56
2023-02-19T10:23:43.717Z,5.53
2023-02-19T10:26:12.490Z,5.52
2023-02-19T10:28:41.177Z,5.66
2023-02-19T10:31:22.368Z,5.76
2023-02-19T10:33:58.886Z,5.71
2023-02-19T10:36:34.487Z,5.66
2023-02-19T10:39:18.064Z,5.63
2023-02-19T10:41:46.771Z,5.63
2023-02-19T10:44:21.678Z,5.70
2023-02-19T10:46:55.610Z,5.77
2023-02-19T10:49:36.187Z,5.77
2023-02-19T10:52:28.502Z,5.66
2023-02-19T10:55:26.468Z,5.65
2023-02-19T10:57:56.023Z,5.69
2023-02-19T11:00:27.747Z,5.67
2023-02-19T11:03:20.183Z,5.57
2023-02-19T11:06:02.969Z,5.52
2023-02-19T11:08:48.994Z,5.45
2023-02-19T11:11:38.283Z,5.39
2023-02-19T11:14:17.928Z,5.43
2023-02-19T11:16:53.305Z,5.44
2023-02-19T11:19:41.369Z,5.47
2023-02-19T11:22:21.353Z,5.45
2023-02-19T11:25:07.092Z,5.32
2023-02-19T11:27:36.853Z,5.25
2023-02-19T11:30:30.604Z,5.25
2023-02-19T11:33:18.311Z,5.24
2023-02-19T11:35:48.981Z,5.28
2023-02-19T11:38:19.890Z,5.30
2023-02-19T11:41:00.418Z,5.26
2023-02-19T11:43:51.232Z,5.24
2023-02-19T11:46:42.190Z,5.55
2023-02-19T11:49:40.755Z,5.85
2023-02-19T11:52:39.068Z,5.91
2023-02-19T11:55:51.703Z,5.99
2023-02-19T11:58:44.937Z,6.05
2023-02-19T12:01:36.255Z,6.12
2023-02-19T12:04:23.750Z,6.10
2023-02-19T12:07:08.364Z,6.11
2023-02-19T12:09:46.937Z,6.11
2023-02-19T12:13:01.169Z,6.01
2023-02-19T12:15:42.898Z,5.72
2023-02-19T12:18:26.919Z,5.56
2023-02-19T12:21:21.739Z,5.40
2023-02-19T12:24:08.585Z,5.09
2023-02-19T12:27:13.543Z,5.00
2023-02-19T12:30:09.158Z,5.01
2023-02-19T12:32:59.902Z,5.17
2023-02-19T12:35:52.749Z,5.31
2023-02-19T12:38:38.686Z,5.46
2023-02-19T12:41:20.093Z,5.47
2023-02-19T12:43:56.112Z,5.48
2023-02-19T12:46:32.312Z,5.50
2023-02-19T12:49:26.489Z,5.56
2023-02-19T12:52:18.970Z,5.56
2023-02-19T12:54:58.276Z,5.59
2023-02-19T12:57:31.965Z,5.61
2023-02-19T13:00:23.639Z,5.68
2023-02-19T13:03:21.722Z,5.84
2023-02-19T13:06:03.709Z,6.06
2023-02-19T13:09:05.381Z,6.35
2023-02-19T13:11:43.843Z,6.53
2023-02-19T13:14:20.163Z,6.49
2023-02-19T13:16:54.167Z,6.50
2023-02-19T13:19:23.576Z,6.58
2023-02-19T13:22:32.461Z,6.55
2023-02-19T13:25:03.054Z,6.59
2023-02-19T13:27:44.534Z,6.60
2023-02-19T13:30:32.282Z,6.69
2023-02-19T13:33:35.466Z,6.86
2023-02-19T13:36:13.206Z,6.95
2023-02-19T13:38:46.629Z,6.91
2023-02-19T13:41:40.713Z,6.89
2023-02-19T13:44:22.160Z,6.83
2023-02-19T13:46:51.619Z,6.78
2023-02-19T13:49:29.264Z,6.66
2023-02-19T13:52:02.823Z,6.51
2023-02-19T13:54:40.521Z,6.41
2023-02-19T13:57:18.616Z,6.36
2023-02-19T13:59:48.872Z,6.21
2023-02-19T14:02:20.989Z,6.14
2023-02-19T14:04:52.086Z,6.17
2023-02-19T14:07:32.249Z,6.22
2023-02-19T14:10:02.219Z,6.23
2023-02-19T14:12:35.461Z,6.21
2023-02-19T14:15:40.740Z,6.08
2023-02-19T14:18:42.128Z,5.94
2023-02-19T14:21:28.700Z,5.86
2023-02-19T14:23:59.161Z,5.81
2023-02-19T14:26:31.148Z,5.79
2023-02-19T14:29:02.348Z,5.83
2023-02-19T14:31:37.714Z,5.87
2023-02-19T14:34:25.480Z,5.82
2023-02-19T14:37:01.386Z,5.88
2023-02-19T14:39:33.557Z,5.94
2023-02-19T14:42:07.236Z,5.94
2023-02-19T14:45:03.257Z,5.88
2023-02-19T14:47:38.438Z,5.81
2023-02-19T14:50:28.110Z,5.81
2023-02-19T14:53:04.652Z,5.78
2023-02-19T14:55:36.628Z,5.81
2023-02-19T14:58:19.366Z,5.85
2023-02-19T15:00:48.216Z,5.90
2023-02-19T15:03:27.167Z,5.95
2023-02-19T15:06:05.658Z,5.98
2023-02-19T15:08:38.640Z,6.02
2023-02-19T15:11:13.125Z,6.03
2023-02-19T15:13:45.993Z,6.06
2023-02-19T15:16:25.697Z,6.04
2023-02-19T15:18:55.593Z,6.03
2023-02-19T15:21:41.755Z,6.02
2023-02-19T15:24:14.606Z,6.01
2023-02-19T15:26:55.617Z,5.96
2023-02-19T15:29:27.170Z,5.95
2023-02-19T15:31:58.685Z,5.90
2023-02-19T15:34:29.978Z,5.82
2023-02-19T15:37:08.301Z,5.78
2023-02-19T15:39:41.791Z,5.70
2023-02-19T15:42:44.150Z,5.66
2023-02-19T15:45:21.510Z,5.60
2023-02-19T15:48:19.912Z,5.61
2023-02-19T15:51:08.481Z,5.61
2023-02-19T15:53:45.485Z,5.61
2023-02-19T15:56:28.475Z,5.56
2023-02-19T15:59:06.579Z,5.51
2023-02-19T16:01:39.945Z,5.46
2023-02-19T16:04:17.805Z,5.42
2023-02-19T16:06:58.955Z,5.41
2023-02-19T16:09:39.196Z,5.36
2023-02-19T16:12:21.281Z,5.26
2023-02-19T16:14:51.463Z,5.17
2023-02-19T16:17:28.368Z,5.17
2023-02-19T16:20:01.860Z,5.16
2023-02-19T16:22:35.501Z,5.18
2023-02-19T16:25:07.527Z,5.21
2023-02-19T16:27:42.200Z,5.26
2023-02-19T16:30:31.241Z,5.29
2023-02-19T16:33:36.617Z,5.35
2023-02-19T16:36:19.705Z,5.39
2023-02-19T16:39:15.875Z,5.38
2023-02-19T16:41:48.309Z,5.32
2023-02-19T16:44:21.658Z,5.30
2023-02-19T16:47:20.569Z,5.25
2023-02-19T16:49:49.161Z,5.23
2023-02-19T16:52:17.954Z,5.19
2023-02-19T16:54:48.674Z,5.16
2023-02-19T16:57:17.665Z,5.14
2023-02-19T16:59:47.478Z,5.17
2023-02-19T17:02:20.984Z,5.18
2023-02-19T17:04:52.120Z,5.13
2023-02-19T17:07:22.631Z,5.09
2023-02-19T17:09:51.455Z,5.09
2023-02-19T17:12:20.721Z,5.08
2023-02-19T17:14:49.549Z,5.07
2023-02-19T17:17:18.464Z,5.02
2023-02-19T17:19:47.196Z,4.99
2023-02-19T17:22:17.853Z,4.98
2023-02-19T17:24:48.455Z,4.99
2023-02-19T17:27:17.279Z,4.99
2023-02-19T17:29:46.042Z,5.01
2023-02-19T17:32:18.123Z,5.03
2023-02-19T17:34:49.980Z,5.02
2023-02-19T17:37:18.948Z,4.99
2023-02-19T17:39:47.658Z,5.02
2023-02-19T17:42:16.604Z,5.09
2023-02-19T17:44:47.053Z,5.11
2023-02-19T17:47:15.761Z,5.11
2023-02-19T17:49:44.777Z,5.07
2023-02-19T17:52:17.838Z,5.07
2023-02-19T17:54:47.164Z,5.04
2023-02-19T17:57:16.054Z,5.03
2023-02-19T17:59:44.674Z,5.04
2023-02-19T18:02:27.240Z,5.02
2023-02-19T18:05:16.279Z,4.99
2023-02-19T18:08:08.265Z,4.98
2023-02-19T18:10:55.408Z,4.99
2023-02-19T18:13:50.850Z,4.98
2023-02-19T18:16:39.428Z,4.99
2023-02-19T18:19:27.430Z,5.00
2023-02-19T18:22:13.611Z,4.98
2023-02-19T18:25:03.075Z,4.98
2023-02-19T18:27:48.440Z,5.00
2023-02-19T18:30:34.602Z,5.01
2023-02-19T18:33:22.315Z,5.02
2023-02-19T18:36:11.432Z,5.02
2023-02-19T18:38:58.372Z,5.03
2023-02-19T18:41:43.453Z,5.05
2023-02-19T18:44:24.441Z,5.03
2023-02-19T18:46:58.406Z,4.97
2023-02-19T18:49:29.796Z,4.92
2023-02-19T18:52:02.742Z,4.87
2023-02-19T18:54:32.046Z,4.84
2023-02-19T18:57:02.138Z,4.82
2023-02-19T18:59:32.186Z,4.77
2023-02-19T19:02:01.241Z,4.72
2023-02-19T19:04:30.375Z,4.69
2023-02-19T19:07:00.361Z,4.68
2023-02-19T19:09:29.398Z,4.68
2023-02-19T19:11:58.399Z,4.67
2023-02-19T19:14:27.537Z,4.62
2023-02-19T19:16:56.596Z,4.56
2023-02-19T19:19:25.654Z,4.51
2023-02-19T19:21:55.367Z,4.49
2023-02-19T19:24:25.481Z,4.48
2023-02-19T19:26:54.587Z,4.44
2023-02-19T19:29:24.212Z,4.36
2023-02-19T19:31:53.739Z,4.31
2023-02-19T19:34:22.885Z,4.27
2023-02-19T19:36:52.457Z,4.22
2023-02-19T19:39:21.229Z,4.21
2023-02-19T19:41:59.127Z,4.19
2023-02-19T19:44:28.250Z,4.17
2023-02-19T19:46:56.893Z,4.19
2023-02-19T19:49:25.862Z,4.20
2023-02-19T19:51:58.582Z,4.23
2023-02-19T19:54:28.281Z,4.19
2023-02-19T19:56:57.173Z,4.15
2023-02-19T19:59:25.857Z,4.09
2023-02-19T20:02:04.749Z,4.04
2023-02-19T20:04:45.453Z,3.98
2023-02-19T20:07:15.605Z,3.93
2023-02-19T20:09:48.686Z,3.91
2023-02-19T20:12:18.302Z,3.91
2023-02-19T20:14:47.407Z,3.91
2023-02-19T20:17:16.441Z,3.89
2023-02-19T20:19:46.284Z,3.90
2023-02-19T20:22:15.257Z,3.94
2023-02-19T20:24:54.998Z,3.97
2023-02-19T20:27:24.028Z,3.91
2023-02-19T20:29:54.043Z,3.86
2023-02-19T20:32:23.142Z,3.81
2023-02-19T20:34:51.934Z,3.79
2023-02-19T20:37:20.745Z,3.79
2023-02-19T20:39:52.034Z,3.77
2023-02-19T20:42:21.183Z,3.76
2023-02-19T20:44:50.255Z,3.78
2023-02-19T20:47:19.006Z,3.79
2023-02-19T20:49:48.039Z,3.80
2023-02-19T20:52:17.568Z,3.78
2023-02-19T20:54:46.262Z,3.77
2023-02-19T20:57:15.461Z,3.79
2023-02-19T20:59:44.535Z,3.75
2023-02-19T21:02:23.964Z,3.68
2023-02-19T21:04:53.054Z,3.62
2023-02-19T21:07:23.242Z,3.60
2023-02-19T21:09:52.775Z,3.52
2023-02-19T21:12:22.925Z,3.46
2023-02-19T21:14:51.688Z,3.44
2023-02-19T21:17:20.686Z,3.41
2023-02-19T21:19:50.329Z,3.36
2023-02-19T21:22:19.497Z,3.35
2023-02-19T21:24:52.613Z,3.37
2023-02-19T21:27:21.668Z,3.36
2023-02-19T21:29:50.271Z,3.40
2023-02-19T21:32:19.460Z,3.42
2023-02-19T21:34:49.256Z,3.43
2023-02-19T21:37:17.802Z,3.38
2023-02-19T21:39:47.757Z,3.27
2023-02-19T21:42:19.076Z,3.20
2023-02-19T21:44:48.726Z,3.16
2023-02-19T21:47:17.322Z,3.15
2023-02-19T21:49:46.233Z,3.09
2023-02-19T21:52:15.604Z,3.08
2023-02-19T21:54:46.785Z,3.03
2023-02-19T21:57:16.023Z,3.00
2023-02-19T21:59:44.809Z,2.98
2023-02-19T22:02:13.769Z,2.99
2023-02-19T22:04:42.859Z,2.98
2023-02-19T22:07:11.805Z,2.94
2023-02-19T22:09:40.505Z,2.93
2023-02-19T22:12:09.624Z,2.93
2023-02-19T22:14:38.561Z,2.93
2023-02-19T22:17:07.140Z,2.91
2023-02-19T22:19:36.493Z,2.88
2023-02-19T22:22:05.665Z,2.85
2023-02-19T22:24:34.334Z,2.86
2023-02-19T22:27:03.672Z,2.89
2023-02-19T22:29:32.588Z,2.86
2023-02-19T22:32:01.412Z,2.89
2023-02-19T22:34:30.968Z,2.96
2023-02-19T22:36:59.875Z,3.02
2023-02-19T22:39:28.665Z,3.06
2023-02-19T22:41:57.482Z,3.08
2023-02-19T22:44:26.922Z,3.06
2023-02-19T22:46:56.763Z,3.06
2023-02-19T22:49:25.798Z,3.07
2023-02-19T22:52:01.130Z,3.09
2023-02-19T22:54:30.104Z,3.14
2023-02-19T22:56:59.059Z,3.17
2023-02-19T22:59:27.853Z,3.15
2023-02-19T23:01:56.834Z,3.17
2023-02-19T23:04:26.565Z,3.20
2023-02-19T23:06:55.757Z,3.26
2023-02-19T23:09:28.014Z,3.29
2023-02-19T23:12:05.726Z,3.29
2023-02-19T23:14:35.183Z,3.29
2023-02-19T23:17:04.582Z,3.28
2023-02-19T23:19:33.561Z,3.27
2023-02-19T23:22:03.651Z,3.25
2023-02-19T23:24:32.294Z,3.23
2023-02-19T23:27:01.431Z,3.23
2023-02-19T23:29:31.305Z,3.24
2023-02-19T23:32:00.644Z,3.20
2023-02-19T23:34:29.667Z,3.21
2023-02-19T23:37:02.656Z,3.26
2023-02-19T23:39:32.036Z,3.31
2023-02-19T23:42:01.170Z,3.35
2023-02-19T23:44:29.757Z,3.36
2023-02-19T23:46:58.638Z,3.42
2023-02-19T23:49:27.846Z,3.43
2023-02-19T23:51:56.538Z,3.44
2023-02-19T23:54:25.402Z,3.47
2023-02-19T23:56:55.825Z,3.49
2023-02-19T23:59:24.281Z,3.47
